createdAt,value
2022-11-20T00:01:05.926Z,10.05
2022-11-20T00:03:32.555Z,9.52
2022-11-20T00:06:07.149Z,10.32
2022-11-20T00:11:14.253Z,7.53
2022-11-20T00:13:42.538Z,9.85
2022-11-20T00:16:11.557Z,9.32
2022-11-20T00:18:38.498Z,9.23
2022-11-20T00:21:07.893Z,8.75
2022-11-20T00:23:35.535Z,9.48
2022-11-20T00:26:04.540Z,9.50
2022-11-20T00:28:31.151Z,8.50
2022-11-20T00:31:09.713Z,8.15
2022-11-20T00:33:36.417Z,9.63
2022-11-20T00:36:08.387Z,9.73
2022-11-20T00:38:35.581Z,8.77
2022-11-20T00:41:05.092Z,9.02
2022-11-20T00:43:32.128Z,10.45
2022-11-20T00:46:19.935Z,9.77
2022-11-20T00:48:46.843Z,9.57
2022-11-20T00:51:20.535Z,9.23
2022-11-20T00:53:47.745Z,10.13
2022-11-20T00:56:16.666Z,9.85
2022-11-20T00:58:45.135Z,10.35
2022-11-20T01:01:24.940Z,8.43
2022-11-20T01:03:53.425Z,9.25
2022-11-20T01:06:22.441Z,9.38
2022-11-20T01:08:50.870Z,10.43
2022-11-20T01:11:23.914Z,8.82
2022-11-20T01:13:52.319Z,8.77
2022-11-20T01:16:39.345Z,9.60
2022-11-20T01:19:08.614Z,8.27
2022-11-20T01:21:40.719Z,9.15
2022-11-20T01:24:09.261Z,8.45
2022-11-20T01:26:37.966Z,10.18
2022-11-20T01:29:05.539Z,8.48
2022-11-20T01:31:38.423Z,9.00
2022-11-20T01:34:08.135Z,9.82
2022-11-20T01:36:37.016Z,9.40
2022-11-20T01:39:12.982Z,9.23
2022-11-20T01:41:58.606Z,9.75
2022-11-20T01:44:57.652Z,8.32
2022-11-20T01:47:30.042Z,8.52
2022-11-20T01:50:05.322Z,8.38
2022-11-20T01:52:40.345Z,7.75
2022-11-20T01:55:12.362Z,9.68
2022-11-20T01:57:40.613Z,8.98
2022-11-20T02:00:11.108Z,8.75
2022-11-20T02:02:40.623Z,8.65
2022-11-20T02:05:18.696Z,9.25
2022-11-20T02:07:46.351Z,9.52
2022-11-20T02:10:13.371Z,8.30
2022-11-20T02:12:59.600Z,8.35
2022-11-20T02:15:30.314Z,8.70
2022-11-20T02:17:57.362Z,7.43
2022-11-20T02:20:24.054Z,9.43
2022-11-20T02:23:09.471Z,9.15
2022-11-20T02:25:37.709Z,9.20
2022-11-20T02:28:05.878Z,9.20
2022-11-20T02:30:32.518Z,8.50
2022-11-20T02:32:59.275Z,8.43
2022-11-20T02:35:25.808Z,8.82
2022-11-20T02:37:55.628Z,8.57
2022-11-20T02:40:22.715Z,8.77
2022-11-20T02:42:53.395Z,8.88
2022-11-20T02:45:20.077Z,8.73
2022-11-20T02:47:46.849Z,6.97
2022-11-20T02:50:13.747Z,9.27
2022-11-20T02:52:40.354Z,8.88
2022-11-20T02:55:07.550Z,8.43
2022-11-20T02:57:34.562Z,7.57
2022-11-20T03:00:01.342Z,8.30
2022-11-20T03:02:31.585Z,9.10
2022-11-20T03:04:58.282Z,9.30
2022-11-20T03:07:25.151Z,8.60
2022-11-20T03:09:51.793Z,8.88
2022-11-20T03:12:18.363Z,8.88
2022-11-20T03:14:48.874Z,9.38
2022-11-20T03:17:18.324Z,8.13
2022-11-20T03:19:44.924Z,8.32
2022-11-20T03:22:11.776Z,8.23
2022-11-20T03:24:38.402Z,9.13
2022-11-20T03:27:05.201Z,8.80
2022-11-20T03:29:31.798Z,8.75
2022-11-20T03:31:58.501Z,7.95
2022-11-20T03:34:25.211Z,9.77
2022-11-20T03:36:51.789Z,8.48
2022-11-20T03:39:18.578Z,8.98
2022-11-20T03:41:45.784Z,7.72
2022-11-20T03:44:13.025Z,8.90
2022-11-20T03:46:40.188Z,9.10
2022-11-20T03:49:06.807Z,8.85
2022-11-20T03:51:35.765Z,8.18
2022-11-20T03:54:05.022Z,8.65
2022-11-20T03:56:34.272Z,7.53
2022-11-20T03:59:00.900Z,8.73
2022-11-20T04:01:36.468Z,9.30
2022-11-20T04:04:05.568Z,8.40
2022-11-20T04:06:38.918Z,7.93
2022-11-20T04:09:07.140Z,8.18
2022-11-20T04:11:36.529Z,8.52
2022-11-20T04:14:05.458Z,8.30
2022-11-20T04:16:34.275Z,8.27
2022-11-20T04:19:03.245Z,7.15
2022-11-20T04:21:30.310Z,8.02
2022-11-20T04:23:57.096Z,8.15
2022-11-20T04:26:26.811Z,9.32
2022-11-20T04:28:54.064Z,8.18
2022-11-20T04:31:23.404Z,7.07
2022-11-20T04:33:50.283Z,8.00
2022-11-20T04:36:22.426Z,8.30
2022-11-20T04:38:57.492Z,8.73
2022-11-20T04:41:26.457Z,9.75
2022-11-20T04:44:00.007Z,8.70
2022-11-20T04:46:28.391Z,7.88
2022-11-20T04:48:55.167Z,8.48
2022-11-20T04:51:21.807Z,8.18
2022-11-20T04:53:48.567Z,7.97
2022-11-20T04:56:15.874Z,8.48
2022-11-20T04:58:42.812Z,7.70
2022-11-20T05:01:15.014Z,8.20
2022-11-20T05:03:42.974Z,8.15
2022-11-20T05:06:14.182Z,8.80
2022-11-20T05:08:41.915Z,8.57
2022-11-20T05:11:16.833Z,8.52
2022-11-20T05:13:43.989Z,6.45
2022-11-20T05:16:14.161Z,7.20
2022-11-20T05:18:41.814Z,7.88
2022-11-20T05:21:09.979Z,7.40
2022-11-20T05:23:37.551Z,8.98
2022-11-20T05:26:05.585Z,7.82
2022-11-20T05:28:33.525Z,8.65
2022-11-20T05:31:12.218Z,8.15
2022-11-20T05:33:41.435Z,7.78
2022-11-20T05:36:08.943Z,9.20
2022-11-20T05:38:35.626Z,8.38
2022-11-20T05:41:21.478Z,8.55
2022-11-20T05:43:49.581Z,8.35
2022-11-20T05:46:19.620Z,7.55
2022-11-20T05:48:48.983Z,8.52
2022-11-20T05:51:18.636Z,7.93
2022-11-20T05:53:48.573Z,7.32
2022-11-20T05:56:22.591Z,9.07
2022-11-20T05:58:50.049Z,6.50
2022-11-20T06:01:18.794Z,8.05
2022-11-20T06:03:48.265Z,8.65
2022-11-20T06:06:18.656Z,8.77
2022-11-20T06:08:45.859Z,8.88
2022-11-20T06:11:14.586Z,11.00
2022-11-20T06:13:42.719Z,10.65
2022-11-20T06:16:11.139Z,12.10
2022-11-20T06:18:38.533Z,11.73
2022-11-20T06:21:17.667Z,13.90
2022-11-20T06:23:44.802Z,12.40
2022-11-20T06:26:16.162Z,11.70
2022-11-20T06:28:42.799Z,12.45
2022-11-20T06:31:12.428Z,13.07
2022-11-20T06:33:39.137Z,10.32
2022-11-20T06:36:10.687Z,10.45
2022-11-20T06:38:39.083Z,10.43
2022-11-20T06:41:07.227Z,9.52
2022-11-20T06:43:33.866Z,9.02
2022-11-20T06:46:00.606Z,10.43
2022-11-20T06:48:28.805Z,10.25
2022-11-20T06:50:55.793Z,10.23
2022-11-20T06:53:23.890Z,10.95
2022-11-20T06:55:52.389Z,11.43
2022-11-20T06:58:19.308Z,9.02
2022-11-20T07:00:45.929Z,9.27
2022-11-20T07:03:14.004Z,12.00
2022-11-20T07:05:41.158Z,10.18
2022-11-20T07:08:08.562Z,10.95
2022-11-20T07:10:35.606Z,12.13
2022-11-20T07:13:02.385Z,9.65
2022-11-20T07:15:29.150Z,8.82
2022-11-20T07:17:55.919Z,10.35
2022-11-20T07:20:22.531Z,9.40
2022-11-20T07:22:58.034Z,9.63
2022-11-20T07:25:28.932Z,10.02
2022-11-20T07:28:02.277Z,11.43
2022-11-20T07:30:29.356Z,8.95
2022-11-20T07:32:57.141Z,10.40
2022-11-20T07:35:24.866Z,10.38
2022-11-20T07:37:51.997Z,12.73
2022-11-20T07:40:19.522Z,13.85
2022-11-20T07:42:51.093Z,15.20
2022-11-20T07:45:19.108Z,17.83
2022-11-20T07:47:45.711Z,13.05
2022-11-20T07:50:13.136Z,12.60
2022-11-20T07:52:39.831Z,10.57
2022-11-20T07:55:07.359Z,9.57
2022-11-20T07:57:34.081Z,12.02
2022-11-20T08:00:00.878Z,11.90
2022-11-20T08:02:27.497Z,14.63
2022-11-20T08:04:54.121Z,13.05
2022-11-20T08:07:20.767Z,9.98
2022-11-20T08:09:47.572Z,10.30
2022-11-20T08:12:40.980Z,10.02
2022-11-20T08:15:12.895Z,12.00
2022-11-20T08:17:40.139Z,9.60
2022-11-20T08:20:07.108Z,10.13
2022-11-20T08:22:33.698Z,13.10
2022-11-20T08:25:00.347Z,8.95
2022-11-20T08:27:27.274Z,10.00
2022-11-20T08:29:53.975Z,10.82
2022-11-20T08:32:20.533Z,11.18
2022-11-20T08:34:47.402Z,12.27
2022-11-20T08:37:14.097Z,13.27
2022-11-20T08:39:41.458Z,11.32
2022-11-20T08:42:09.501Z,10.77
2022-11-20T08:44:36.162Z,12.25
2022-11-20T08:47:05.580Z,15.25
2022-11-20T08:49:32.396Z,15.50
2022-11-20T08:51:58.978Z,14.13
2022-11-20T08:54:25.571Z,11.38
2022-11-20T08:56:52.287Z,14.40
2022-11-20T08:59:31.624Z,15.63
2022-11-20T09:02:03.810Z,14.07
2022-11-20T09:04:30.361Z,13.98
2022-11-20T09:06:56.973Z,13.40
2022-11-20T09:09:24.006Z,14.90
2022-11-20T09:11:51.249Z,14.02
2022-11-20T09:14:17.904Z,15.35
2022-11-20T09:16:47.518Z,14.90
2022-11-20T09:19:34.548Z,12.25
2022-11-20T09:22:01.194Z,13.77
2022-11-20T09:24:28.854Z,17.58
2022-11-20T09:26:55.503Z,16.60
2022-11-20T09:29:22.572Z,17.20
2022-11-20T09:31:49.459Z,18.38
2022-11-20T09:34:16.404Z,15.98
2022-11-20T09:36:43.064Z,14.63
2022-11-20T09:39:09.699Z,15.95
2022-11-20T09:41:39.229Z,17.27
2022-11-20T09:44:32.013Z,11.98
2022-11-20T09:47:14.011Z,15.98
2022-11-20T09:50:19.305Z,14.27
2022-11-20T09:53:24.860Z,12.93
2022-11-20T09:55:52.284Z,13.77
2022-11-20T09:59:00.759Z,11.30
2022-11-20T10:01:37.293Z,18.48
2022-11-20T10:04:25.198Z,15.10
2022-11-20T10:07:36.010Z,21.33
2022-11-20T10:10:02.727Z,19.15
2022-11-20T10:12:32.387Z,13.82
2022-11-20T10:15:05.328Z,16.85
2022-11-20T10:17:56.633Z,18.85
2022-11-20T10:20:44.609Z,13.85
2022-11-20T10:23:26.317Z,16.13
2022-11-20T10:26:47.991Z,15.15
2022-11-20T10:29:17.795Z,11.77
2022-11-20T10:32:02.780Z,14.93
2022-11-20T10:37:27.994Z,13.43
2022-11-20T10:40:26.213Z,15.52
2022-11-20T10:43:09.277Z,14.63
2022-11-20T10:45:51.885Z,17.95
2022-11-20T10:48:26.504Z,14.63
2022-11-20T10:53:41.015Z,9.52
2022-11-20T10:56:39.855Z,15.27
2022-11-20T10:59:09.603Z,17.95
2022-11-20T11:01:44.300Z,16.70
2022-11-20T11:09:31.005Z,12.23
2022-11-20T11:12:00.776Z,17.30
2022-11-20T11:14:30.975Z,14.20
2022-11-20T11:16:58.713Z,15.20
2022-11-20T11:19:25.929Z,14.50
2022-11-20T11:21:57.542Z,13.60
2022-11-20T11:24:46.511Z,18.17
2022-11-20T11:27:18.024Z,19.80
2022-11-20T11:29:45.909Z,17.88
2022-11-20T11:32:16.733Z,22.02
2022-11-20T11:34:43.844Z,16.05
2022-11-20T11:37:22.435Z,16.38
2022-11-20T11:40:03.945Z,21.85
2022-11-20T11:42:49.022Z,20.70
2022-11-20T11:45:18.325Z,24.08
2022-11-20T11:47:44.853Z,21.42
2022-11-20T11:50:19.379Z,12.43
2022-11-20T11:52:57.644Z,19.15
2022-11-20T11:55:59.562Z,15.48
2022-11-20T11:58:46.511Z,15.15
2022-11-20T12:01:25.170Z,19.08
2022-11-20T12:04:20.471Z,14.13
2022-11-20T12:06:54.470Z,11.07
2022-11-20T12:09:27.380Z,11.13
2022-11-20T12:12:13.922Z,22.83
2022-11-20T12:14:47.287Z,19.52
2022-11-20T12:17:15.135Z,15.77
2022-11-20T12:19:42.342Z,20.52
2022-11-20T12:22:32.039Z,22.88
2022-11-20T12:25:17.745Z,22.48
2022-11-20T12:27:59.466Z,18.25
2022-11-20T12:30:26.386Z,19.27
2022-11-20T12:33:16.922Z,17.27
2022-11-20T12:35:52.413Z,20.65
2022-11-20T12:38:35.953Z,23.42
2022-11-20T12:41:14.766Z,23.25
2022-11-20T12:44:09.393Z,20.33
2022-11-20T12:46:51.369Z,21.03
2022-11-20T12:49:53.743Z,24.15
2022-11-20T12:52:45.242Z,28.10
2022-11-20T12:55:33.254Z,24.08
2022-11-20T12:58:05.051Z,29.90
2022-11-20T13:00:35.430Z,30.67
2022-11-20T13:03:28.950Z,20.25
2022-11-20T13:06:18.456Z,22.75
2022-11-20T13:08:56.878Z,26.63
2022-11-20T13:11:31.394Z,16.08
2022-11-20T13:14:36.411Z,14.50
2022-11-20T13:17:13.317Z,28.87
2022-11-20T13:19:40.835Z,28.42
2022-11-20T13:22:09.995Z,27.85
2022-11-20T13:24:36.602Z,28.27
2022-11-20T13:27:09.074Z,10.20
2022-11-20T13:29:37.856Z,23.40
2022-11-20T13:32:22.181Z,32.28
2022-11-20T13:34:56.993Z,25.35
2022-11-20T13:37:30.808Z,30.88
2022-11-20T13:40:27.362Z,33.50
2022-11-20T13:43:08.559Z,28.02
2022-11-20T13:45:35.243Z,25.42
2022-11-20T13:48:22.071Z,32.85
2022-11-20T13:51:05.210Z,39.67
2022-11-20T13:54:06.963Z,37.50
2022-11-20T13:56:39.374Z,31.88
2022-11-20T13:59:43.402Z,27.52
2022-11-20T14:02:15.474Z,33.13
2022-11-20T14:04:48.782Z,32.72
2022-11-20T14:07:17.176Z,33.63
2022-11-20T14:09:52.738Z,31.98
2022-11-20T14:12:21.825Z,32.03
2022-11-20T14:14:54.074Z,27.60
2022-11-20T14:17:29.853Z,31.25
2022-11-20T14:20:00.726Z,32.33
2022-11-20T14:22:28.338Z,30.33
2022-11-20T14:25:13.004Z,13.02
2022-11-20T14:27:42.526Z,30.38
2022-11-20T14:30:18.542Z,19.48
2022-11-20T14:32:47.182Z,22.75
2022-11-20T14:35:29.823Z,30.73
2022-11-20T14:37:57.675Z,17.35
2022-11-20T14:40:31.866Z,30.70
2022-11-20T14:42:59.673Z,30.67
2022-11-20T14:45:27.434Z,28.48
2022-11-20T14:47:57.532Z,30.58
2022-11-20T14:50:27.126Z,23.27
2022-11-20T14:52:56.459Z,18.77
2022-11-20T14:55:38.181Z,19.13
2022-11-20T14:58:23.135Z,10.23
2022-11-20T15:01:02.303Z,18.45
2022-11-20T15:03:37.584Z,23.05
2022-11-20T15:06:05.625Z,26.02
2022-11-20T15:08:32.487Z,25.80
2022-11-20T15:10:59.645Z,24.50
2022-11-20T15:13:33.656Z,20.88
2022-11-20T15:16:02.469Z,25.75
2022-11-20T15:18:33.120Z,19.05
2022-11-20T15:21:04.054Z,23.25
2022-11-20T15:23:30.820Z,21.92
2022-11-20T15:25:57.601Z,21.23
2022-11-20T15:28:38.078Z,24.80
2022-11-20T15:31:05.360Z,13.23
2022-11-20T15:33:33.804Z,12.50
2022-11-20T15:36:00.890Z,23.23
2022-11-20T15:38:27.558Z,24.25
2022-11-20T15:40:54.122Z,19.95
2022-11-20T15:43:20.790Z,21.13
2022-11-20T15:45:59.954Z,15.90
2022-11-20T15:48:49.420Z,7.43
2022-11-20T15:51:26.322Z,30.30
2022-11-20T15:53:53.023Z,20.35
2022-11-20T15:56:19.779Z,23.02
2022-11-20T15:58:46.521Z,22.33
2022-11-20T16:01:22.067Z,24.35
2022-11-20T16:03:49.298Z,22.73
2022-11-20T16:06:17.206Z,24.65
2022-11-20T16:08:44.335Z,20.20
2022-11-20T16:11:16.051Z,25.23
2022-11-20T16:14:01.449Z,20.83
2022-11-20T16:16:35.053Z,28.00
2022-11-20T16:19:01.767Z,28.17
2022-11-20T16:21:32.262Z,20.98
2022-11-20T16:24:07.002Z,23.52
2022-11-20T16:26:34.340Z,14.60
2022-11-20T16:29:02.021Z,17.02
2022-11-20T16:31:28.750Z,24.67
2022-11-20T16:33:57.888Z,22.55
2022-11-20T16:36:26.234Z,23.92
2022-11-20T16:38:58.021Z,24.67
2022-11-20T16:41:26.861Z,28.80
2022-11-20T16:43:58.622Z,26.33
2022-11-20T16:46:30.552Z,31.77
2022-11-20T16:48:59.538Z,28.65
2022-11-20T16:51:27.411Z,19.75
2022-11-20T16:53:57.367Z,32.03
2022-11-20T16:56:26.413Z,29.00
2022-11-20T16:58:55.660Z,30.85
2022-11-20T17:01:23.964Z,27.77
2022-11-20T17:03:58.569Z,27.70
2022-11-20T17:06:28.052Z,24.52
2022-11-20T17:08:56.051Z,28.98
2022-11-20T17:11:23.170Z,26.23
2022-11-20T17:13:50.006Z,29.92
2022-11-20T17:16:22.494Z,35.03
2022-11-20T17:18:50.145Z,32.17
2022-11-20T17:21:18.285Z,31.00
2022-11-20T17:23:46.099Z,30.80
2022-11-20T17:26:16.728Z,32.33
2022-11-20T17:28:47.155Z,34.10
2022-11-20T17:31:16.117Z,29.08
2022-11-20T17:33:44.577Z,35.10
2022-11-20T17:36:15.658Z,32.75
2022-11-20T17:38:42.987Z,31.63
2022-11-20T17:41:12.618Z,32.25
2022-11-20T17:43:39.610Z,35.20
2022-11-20T17:46:07.482Z,31.15
2022-11-20T17:48:35.178Z,27.55
2022-11-20T17:51:06.659Z,32.08
2022-11-20T17:53:36.169Z,24.35
2022-11-20T17:56:22.214Z,32.50
2022-11-20T17:58:48.968Z,20.95
2022-11-20T18:01:16.691Z,27.13
2022-11-20T18:03:43.498Z,31.60
2022-11-20T18:06:15.456Z,26.27
2022-11-20T18:08:42.805Z,31.55
2022-11-20T18:11:18.354Z,26.88
2022-11-20T18:14:06.126Z,31.77
2022-11-20T18:16:36.590Z,32.83
2022-11-20T18:19:03.282Z,25.42
2022-11-20T18:21:31.234Z,23.65
2022-11-20T18:23:58.481Z,33.63
2022-11-20T18:26:25.805Z,33.15
2022-11-20T18:28:52.899Z,30.95
2022-11-20T18:31:20.319Z,29.67
2022-11-20T18:33:47.572Z,29.70
2022-11-20T18:36:19.619Z,27.45
2022-11-20T18:38:48.691Z,31.52
2022-11-20T18:41:37.218Z,29.75
2022-11-20T18:44:25.321Z,30.70
2022-11-20T18:46:52.248Z,30.15
2022-11-20T18:49:18.906Z,33.70
2022-11-20T18:51:45.653Z,32.45
2022-11-20T18:54:12.650Z,25.88
2022-11-20T18:56:39.842Z,26.95
2022-11-20T18:59:09.150Z,26.15
2022-11-20T19:01:36.707Z,27.13
2022-11-20T19:04:11.438Z,26.85
2022-11-20T19:09:08.838Z,25.40
2022-11-20T19:11:36.379Z,23.67
2022-11-20T19:14:03.262Z,21.92
2022-11-20T19:16:30.495Z,25.58
2022-11-20T19:19:03.209Z,23.30
2022-11-20T19:21:30.923Z,23.52
2022-11-20T19:24:00.464Z,26.63
2022-11-20T19:26:27.249Z,24.58
2022-11-20T19:28:54.179Z,24.02
2022-11-20T19:31:24.852Z,24.67
2022-11-20T19:34:00.044Z,19.60
2022-11-20T19:36:32.774Z,24.98
2022-11-20T19:39:00.500Z,24.08
2022-11-20T19:41:29.793Z,21.33
2022-11-20T19:44:00.383Z,28.25
2022-11-20T19:46:28.207Z,34.60
2022-11-20T19:48:56.244Z,28.63
2022-11-20T19:51:25.434Z,28.90
2022-11-20T19:53:52.606Z,29.83
2022-11-20T19:56:19.538Z,33.92
2022-11-20T19:58:46.172Z,33.00
2022-11-20T20:01:15.892Z,29.80
2022-11-20T20:03:43.106Z,30.50
2022-11-20T20:06:13.470Z,31.52
2022-11-20T20:08:41.004Z,33.55
2022-11-20T20:11:15.968Z,32.00
2022-11-20T20:13:43.323Z,35.72
2022-11-20T20:16:11.678Z,33.88
2022-11-20T20:18:39.002Z,26.85
2022-11-20T20:21:08.162Z,23.42
2022-11-20T20:23:35.588Z,25.98
2022-11-20T20:26:04.354Z,29.45
2022-11-20T20:28:31.299Z,31.30
2022-11-20T20:30:57.983Z,27.73
2022-11-20T20:33:24.738Z,24.60
2022-11-20T20:35:51.319Z,23.98
2022-11-20T20:38:17.984Z,24.08
2022-11-20T20:40:49.528Z,25.48
2022-11-20T20:43:17.219Z,27.90
2022-11-20T20:45:50.822Z,25.30
2022-11-20T20:48:22.277Z,25.23
2022-11-20T20:50:56.483Z,26.48
2022-11-20T20:53:23.967Z,28.63
2022-11-20T20:55:58.650Z,33.80
2022-11-20T21:00:52.480Z,34.70
2022-11-20T21:03:20.041Z,29.80
2022-11-20T21:05:47.157Z,31.33
2022-11-20T21:08:22.986Z,32.45
2022-11-20T21:10:50.272Z,30.00
2022-11-20T21:13:17.281Z,23.73
2022-11-20T21:15:47.137Z,23.48
2022-11-20T21:18:14.692Z,24.55
2022-11-20T21:20:59.995Z,28.30
2022-11-20T21:23:26.695Z,27.75
2022-11-20T21:25:53.536Z,28.25
2022-11-20T21:28:20.172Z,26.23
2022-11-20T21:30:47.390Z,22.17
2022-11-20T21:33:14.409Z,28.65
2022-11-20T21:35:41.439Z,28.52
2022-11-20T21:38:07.997Z,30.45
2022-11-20T21:40:34.627Z,26.38
2022-11-20T21:43:01.270Z,18.02
2022-11-20T21:45:27.854Z,23.40
2022-11-20T21:47:55.083Z,20.95
2022-11-20T21:50:22.265Z,20.17
2022-11-20T21:52:49.045Z,20.00
2022-11-20T21:55:15.666Z,21.90
2022-11-20T21:57:42.270Z,21.13
2022-11-20T22:00:10.626Z,20.35
2022-11-20T22:02:40.333Z,19.95
2022-11-20T22:05:07.919Z,17.95
2022-11-20T22:07:35.332Z,16.67
2022-11-20T22:10:02.230Z,18.20
2022-11-20T22:12:29.006Z,17.25
2022-11-20T22:14:55.738Z,20.65
2022-11-20T22:17:42.356Z,22.40
2022-11-20T22:20:09.888Z,15.48
2022-11-20T22:22:36.732Z,22.20
2022-11-20T22:25:03.514Z,21.30
2022-11-20T22:27:30.134Z,17.42
2022-11-20T22:29:56.731Z,18.33
2022-11-20T22:32:23.369Z,13.55
2022-11-20T22:34:50.167Z,15.13
2022-11-20T22:37:17.126Z,14.07
2022-11-20T22:39:43.741Z,10.98
2022-11-20T22:42:10.317Z,14.27
2022-11-20T22:44:36.955Z,14.38
2022-11-20T22:47:07.449Z,12.82
2022-11-20T22:49:36.895Z,14.05
2022-11-20T22:52:03.538Z,14.98
2022-11-20T22:54:30.134Z,16.15
2022-11-20T22:56:56.742Z,16.00
2022-11-20T22:59:23.429Z,14.57
2022-11-20T23:01:50.171Z,12.80
2022-11-20T23:04:16.902Z,13.27
2022-11-20T23:06:43.702Z,11.90
2022-11-20T23:09:12.725Z,11.23
2022-11-20T23:11:39.747Z,12.38
2022-11-20T23:14:14.257Z,10.32
2022-11-20T23:16:41.474Z,9.95
2022-11-20T23:19:14.097Z,6.68
2022-11-20T23:21:42.512Z,7.43
2022-11-20T23:24:10.064Z,5.28
2022-11-20T23:26:39.310Z,6.22
2022-11-20T23:29:06.708Z,6.07
2022-11-20T23:31:34.742Z,4.82
2022-11-20T23:34:01.498Z,4.72
2022-11-20T23:36:28.295Z,3.97
2022-11-20T23:38:55.031Z,3.25
2022-11-20T23:41:21.818Z,4.53
2022-11-20T23:43:48.451Z,4.43
2022-11-20T23:46:16.752Z,5.38
2022-11-20T23:48:45.078Z,4.85
2022-11-20T23:51:12.522Z,5.60
2022-11-20T23:53:39.802Z,7.13
2022-11-20T23:56:06.551Z,7.45
2022-11-20T23:58:36.253Z,6.50
